Latest Weather Observations for McArthur River Mine

IDD60801

Issued at 4:21 pm CST Monday 26 September 2022 (issued every 10 minutes, with the page automatically refreshed every 10 minutes)

About weather observations | Map of weather stations | Latest weather observations for NT | Other Formats
Station Details ID: 014704 Name: MCARTHUR RIVER MINE AIRPORT Lat: -16.44 Lon: 136.08 Height: 40.0 m
Data from the previous 72 hours. | See also: Recent months at McArthur River Mine
Date/Time
CST
Temp
°C
App
Temp
°C
Dew
Point
°C
Rel
Hum
%
Delta-T
°C
Wind Press
QNH
hPa
Press
MSL
hPa
Rain since
9am
mm
Dir  Spd
km/h
Gust
km/h
Spd
kts
Gust
kts
26/04:00pm 36.7 34.0 12.8 23 14.5 NNE 19 33 10 18 1006.8 1006.6 0.0
26/03:30pm 36.3 33.5 13.1 25 14.2 N 20 30 11 16 1006.7 1006.5 0.0
26/03:00pm 37.4 35.1 14.7 26 14.2 NNE 20 33 11 18 1006.8 1006.6 0.0
26/02:30pm 37.2 34.2 12.6 23 15.0 N 20 32 11 17 1007.2 1007.0 0.0
26/02:00pm 38.3 35.6 13.5 23 15.3 NNE 20 37 11 20 1007.3 1007.1 0.0
26/01:30pm 38.2 36.1 11.3 20 16.1 NNE 13 26 7 14 1007.6 1007.4 0.0
26/01:00pm 37.5 34.7 10.0 19 16.1 NNE 15 30 8 16 1008.2 1008.0 0.0
26/12:30pm 37.4 34.6 9.9 19 16.1 NNE 15 32 8 17 1008.9 1008.7 0.0
26/12:00pm 37.5 33.1 6.5 15 17.2 NE 19 30 10 16 1009.5 1009.3 0.0
26/11:30am 37.2 32.7 6.3 15 17.1 NNE 19 30 10 16 1010.1 1009.9 0.0
26/11:00am 36.4 34.3 9.8 20 15.4 N 11 22 6 12 1010.4 1010.2 0.0
26/10:30am 33.9 34.2 14.4 31 12.0 NE 6 15 3 8 1010.7 1010.5 0.0
26/10:00am 32.9 33.5 15.4 35 10.9 NW 6 11 3 6 1010.9 1010.7 0.0
26/09:30am 31.1 32.2 15.5 39 9.7 NNE 4 9 2 5 1010.9 1010.7 0.0
26/09:00am 29.0 30.3 17.2 49 7.4 NNW 6 9 3 5 1010.9 1010.7 0.0
26/08:30am 26.8 28.5 18.6 60 5.2 NNE 7 11 4 6 1010.8 1010.6 0.0
26/08:00am 24.2 26.2 15.9 59 5.0 CALM 0 0 0 0 1010.8 1010.6 0.0
26/07:30am 21.4 22.4 13.1 59 4.8 CALM 0 0 0 0 1010.6 1010.4 0.0
26/07:00am 18.6 18.4 10.4 59 4.4 SW 2 6 1 3 1010.3 1010.1 0.0
26/06:30am 17.5 17.7 10.4 63 3.8 CALM 0 0 0 0 1010.0 1009.8 0.0
26/06:00am 16.9 16.2 10.1 64 3.6 WSW 4 6 2 3 1009.7 1009.5 0.0
26/05:30am 17.3 17.4 10.0 62 3.9 CALM 0 0 0 0 1009.4 1009.2 0.0
26/05:00am 17.7 17.8 10.3 62 3.9 CALM 0 0 0 0 1009.2 1009.0 0.0
26/04:30am 17.9 17.9 9.8 59 4.3 CALM 0 0 0 0 1008.9 1008.7 0.0
26/04:00am 18.3 18.4 10.2 59 4.3 CALM 0 0 0 0 1008.9 1008.7 0.0
26/03:30am 18.8 19.2 11.1 61 4.2 CALM 0 0 0 0 1008.9 1008.7 0.0
26/03:00am 19.2 19.4 10.5 57 4.7 CALM 0 0 0 0 1009.1 1008.9 0.0
26/02:30am 19.5 19.6 10.2 55 5.0 CALM 0 0 0 0 1009.3 1009.1 0.0
26/02:00am 19.8 19.9 10.2 54 5.2 CALM 0 0 0 0 1009.7 1009.5 0.0
26/01:30am 20.2 20.3 10.0 52 5.5 CALM 0 0 0 0 1009.9 1009.7 0.0
26/01:00am 20.8 20.6 10.6 52 5.6 ENE 2 6 1 3 1010.2 1010.0 0.0
26/12:30am 21.7 22.1 11.1 51 5.9 CALM 0 0 0 0 1010.4 1010.2 0.0
26/12:00am 22.8 22.7 12.1 51 6.1 ENE 4 6 2 3 1010.6 1010.4 0.0
 
Date/Time
CST
Temp
°C
App
Temp
°C
Dew
Point
°C
Rel
Hum
%
Delta-T
°C
Wind Press
QNH
hPa
Press
MSL
hPa
Rain since
9am
mm
Dir  Spd
km/h
Gust
km/h
Spd
kts
Gust
kts
25/11:30pm 23.4 23.9 11.5 47 6.7 CALM 0 0 0 0 1011.0 1010.8 0.0
25/11:00pm 23.8 24.0 10.5 43 7.4 CALM 0 4 0 2 1010.9 1010.7 0.0
25/10:30pm 26.4 25.6 11.7 40 8.4 NNE 7 11 4 6 1010.8 1010.6 0.0
25/10:00pm 26.7 25.3 10.8 37 9.0 NNE 9 11 5 6 1010.7 1010.5 0.0
25/09:30pm 27.9 26.6 10.1 33 10.0 N 7 9 4 5 1010.6 1010.4 0.0
25/09:00pm 28.9 27.1 9.6 30 10.8 NE 9 13 5 7 1010.2 1010.0 0.0
25/08:30pm 29.3 27.2 8.4 27 11.5 NNE 9 15 5 8 1009.8 1009.6 0.0
25/08:00pm 30.5 27.6 8.3 25 12.3 NNE 13 20 7 11 1009.3 1009.1 0.0
25/07:30pm 30.9 28.5 8.6 25 12.4 NNE 11 20 6 11 1009.0 1008.8 0.0
25/07:00pm 31.8 28.1 8.1 23 13.1 NNE 17 24 9 13 1008.5 1008.3 0.0
25/06:30pm 32.6 28.4 7.4 21 13.9 NE 19 26 10 14 1008.2 1008.0 0.0
25/06:00pm 33.7 29.5 7.6 20 14.5 NNE 19 28 10 15 1007.8 1007.6 0.0
25/05:30pm 35.1 30.5 6.4 17 15.8 NNE 20 30 11 16 1007.5 1007.3 0.0
25/05:00pm 36.1 30.9 5.4 15 16.6 NNE 22 32 12 17 1007.1 1006.9 0.0
25/04:30pm 37.5 32.9 5.5 14 17.5 NNE 19 30 10 16 1007.0 1006.8 0.0
25/04:00pm 38.5 34.0 0.0 9 19.5 E 13 19 7 10 1006.8 1006.6 0.0
25/03:30pm 38.9 35.1 1.8 10 19.4 E 11 17 6 9 1006.9 1006.7 0.0
25/03:00pm 38.4 33.6 0.0 9 19.4 N 15 24 8 13 1007.3 1007.1 0.0
25/02:30pm 38.5 35.4 0.0 9 19.5 W 6 13 3 7 1007.7 1007.5 0.0
25/02:00pm 37.6 32.9 0.8 10 18.7 NNE 15 24 8 13 1008.3 1008.1 0.0
25/01:30pm 38.1 33.8 1.2 10 19.0 ENE 13 22 7 12 1008.8 1008.6 0.0
25/01:00pm 37.6 33.9 2.1 11 18.4 ENE 11 20 6 11 1009.4 1009.2 0.0
25/12:30pm 36.8 33.1 0.2 10 18.4 E 9 15 5 8 1010.1 1009.9 0.0
25/12:00pm 36.8 32.6 1.5 11 18.1 E 13 26 7 14 1010.6 1010.4 0.0
25/11:30am 35.8 31.3 2.0 12 17.4 NE 15 24 8 13 1011.0 1010.8 0.0
25/11:00am 36.1 31.2 2.2 12 17.5 ENE 17 24 9 13 1011.5 1011.3 0.0
25/10:30am 35.5 31.9 2.9 13 16.9 E 11 22 6 12 1011.8 1011.6 0.0
25/10:00am 34.0 29.2 2.8 14 16.0 E 17 30 9 16 1012.1 1011.9 0.0
25/09:30am 31.7 29.5 5.3 19 14.0 ESE 6 11 3 6 1012.5 1012.3 0.0
25/09:00am 29.2 26.7 6.6 24 12.0 S 9 11 5 6 1012.4 1012.2 0.0
25/08:30am 27.2 26.0 6.6 27 10.9 SSW 2 6 1 3 1012.5 1012.3 0.0
25/08:00am 23.9 22.1 7.1 34 8.8 SW 6 9 3 5 1012.3 1012.1 0.0
25/07:30am 20.9 19.3 8.2 44 6.6 SW 6 9 3 5 1012.0 1011.8 0.0
25/07:00am 17.3 16.9 8.2 55 4.6 CALM 0 0 0 0 1011.5 1011.3 0.0
25/06:30am 15.6 14.9 6.9 56 4.3 CALM 0 0 0 0 1011.0 1010.8 0.0
25/06:00am 15.8 15.1 6.8 55 4.4 CALM 0 0 0 0 1010.5 1010.3 0.0
25/05:30am 16.6 16.0 7.3 54 4.7 CALM 0 0 0 0 1010.2 1010.0 0.0
25/05:00am 16.9 16.2 7.0 52 4.9 CALM 0 0 0 0 1010.1 1009.9 0.0
25/04:30am 17.1 16.5 7.2 52 5.0 CALM 0 0 0 0 1009.8 1009.6 0.0
25/04:00am 17.0 16.3 6.8 51 5.1 CALM 0 2 0 1 1009.9 1009.7 0.0
25/03:30am 17.5 15.5 7.0 50 5.3 SW 7 9 4 5 1009.8 1009.6 0.0
25/03:00am 18.1 16.3 7.2 49 5.5 NNW 6 7 3 4 1010.0 1009.8 0.0
25/02:30am 17.6 15.5 5.9 46 5.7 WNW 6 7 3 4 1010.1 1009.9 0.0
25/02:00am 18.2 16.9 6.1 45 6.0 WNW 2 6 1 3 1010.3 1010.1 0.0
25/01:30am 19.3 18.3 5.7 41 6.7 CALM 0 0 0 0 1010.6 1010.4 0.0
25/01:00am 19.9 17.7 6.3 41 6.8 SSW 7 9 4 5 1010.8 1010.6 0.0
25/12:30am 19.9 18.1 5.5 39 7.1 WSW 4 6 2 3 1010.8 1010.6 0.0
25/12:00am 20.3 18.3 6.3 40 7.0 W 6 7 3 4 1011.0 1010.8 0.0
 
Date/Time
CST
Temp
°C
App
Temp
°C
Dew
Point
°C
Rel
Hum
%
Delta-T
°C
Wind Press
QNH
hPa
Press
MSL
hPa
Rain since
9am
mm
Dir  Spd
km/h
Gust
km/h
Spd
kts
Gust
kts
24/11:30pm 21.5 19.3 5.4 35 8.0 SW 6 7 3 4 1011.1 1010.9 0.0
24/11:00pm 22.9 21.9 5.8 33 8.6 CALM 0 0 0 0 1011.1 1010.9 0.0
24/10:30pm 23.8 22.8 5.7 31 9.2 CALM 0 0 0 0 1011.2 1011.0 0.0
24/10:00pm 24.7 23.2 5.0 28 9.9 NNE 2 7 1 4 1011.0 1010.8 0.0
24/09:30pm 26.2 24.0 5.2 26 10.7 NNE 6 7 3 4 1010.7 1010.5 0.0
24/09:00pm 27.6 25.2 5.2 24 11.6 N 7 11 4 6 1010.3 1010.1 0.0
24/08:30pm 28.9 26.0 4.4 21 12.6 NNE 9 15 5 8 1010.0 1009.8 0.0
24/08:00pm 29.8 26.2 5.1 21 12.9 NNE 13 20 7 11 1009.7 1009.5 0.0
24/07:30pm 30.6 26.8 5.8 21 13.2 NNE 15 28 8 15 1009.3 1009.1 0.0
24/07:00pm 31.7 27.6 6.0 20 13.7 NNE 17 24 9 13 1008.7 1008.5 0.0
24/06:30pm 33.5 29.4 4.2 16 15.4 NNE 15 26 8 14 1008.1 1007.9 0.0
24/06:00pm 35.0 30.7 3.5 14 16.5 NE 15 24 8 13 1007.6 1007.4 0.0
24/05:30pm 36.8 32.5 -4.6 7 19.3 ESE 9 15 5 8 1007.2 1007.0 0.0
24/05:00pm 37.4 32.8 -4.2 7 19.5 ESE 11 22 6 12 1007.2 1007.0 0.0
24/04:30pm 37.4 33.2 -4.2 7 19.6 NE 9 17 5 9 1007.1 1006.9 0.0
24/04:00pm 37.6 32.6 -4.0 7 19.6 ESE 13 20 7 11 1007.2 1007.0 0.0
24/03:30pm 37.5 33.8 -4.1 7 19.6 ENE 6 13 3 7 1007.3 1007.1 0.0
24/03:00pm 37.6 32.3 -4.0 7 19.7 ESE 15 26 8 14 1007.6 1007.4 0.0
24/02:30pm 37.5 32.9 -4.1 7 19.6 ESE 11 20 6 11 1008.0 1007.8 0.0
24/02:00pm 37.2 32.6 -4.3 7 19.4 ENE 11 24 6 13 1008.4 1008.2 0.0
24/01:30pm 36.9 31.9 -4.5 7 19.3 E 13 22 7 12 1009.0 1008.8 0.0
24/01:00pm 36.3 31.8 -3.2 8 18.7 SE 11 24 6 13 1009.6 1009.4 0.0
24/12:30pm 35.9 31.2 -1.9 9 18.3 SSE 13 22 7 12 1010.1 1009.9 0.0
24/12:00pm 35.5 31.3 -0.8 10 17.8 ESE 11 20 6 11 1010.7 1010.5 0.0
24/11:30am 34.7 30.2 -0.1 11 17.2 E 13 22 7 12 1011.3 1011.1 0.0
24/11:00am 34.8 29.6 0.0 11 17.2 E 17 26 9 14 1012.0 1011.8 0.0
24/10:30am 33.4 28.4 1.3 13 16.1 E 17 30 9 16 1012.4 1012.2 0.0
24/10:00am 32.7 27.2 0.7 13 15.8 E 19 30 10 16 1012.8 1012.6 0.0
24/09:30am 32.3 26.9 1.4 14 15.4 ESE 19 30 10 16 1012.9 1012.7 0.0
24/09:00am 30.9 25.5 1.3 15 14.6 ESE 19 30 10 16 1012.8 1012.6 0.0
24/08:30am 28.0 25.4 7.8 28 10.9 SE 11 17 6 9 1012.7 1012.5 0.0
24/08:00am 25.2 24.4 11.7 43 7.7 SSW 7 11 4 6 1012.5 1012.3 0.0
24/07:30am 21.3 22.8 17.5 79 2.3 W 6 9 3 5 1012.2 1012.0 0.0
24/07:00am 18.3 19.2 16.6 90 1.0 W 7 9 4 5 1012.0 1011.8 0.0
24/06:30am 16.5 16.6 13.8 84 1.5 WNW 6 7 3 4 1011.5 1011.3 0.0
24/06:00am 16.6 16.8 14.1 85 1.4 WNW 6 7 3 4 1011.3 1011.1 0.0
24/05:30am 17.8 18.5 15.6 87 1.3 SW 6 6 3 3 1011.1 1010.9 0.0
24/05:00am 18.1 18.6 15.0 82 1.8 SSW 6 7 3 4 1011.0 1010.8 0.0
24/04:30am 18.7 19.3 15.2 80 2.1 SW 6 7 3 4 1010.6 1010.4 0.0
24/04:00am 18.6 20.5 15.7 83 1.7 CALM 0 0 0 0 1010.6 1010.4 0.0
24/03:30am 19.2 21.2 16.1 82 1.9 CALM 0 0 0 0 1010.5 1010.3 0.0
24/03:00am 19.5 21.2 16.3 82 1.9 WNW 2 7 1 4 1010.6 1010.4 0.0
24/02:30am 20.0 22.4 17.0 83 1.8 CALM 0 0 0 0 1010.7 1010.5 0.0
24/02:00am 20.4 22.0 16.8 80 2.2 WSW 4 7 2 4 1010.9 1010.7 0.0
24/01:30am 21.3 23.8 17.3 78 2.5 CALM 0 0 0 0 1011.1 1010.9 0.0
24/01:00am 22.5 25.1 17.4 73 3.2 CALM 0 0 0 0 1011.5 1011.3 0.0
24/12:30am 23.5 26.4 18.2 72 3.3 CALM 0 0 0 0 1011.9 1011.7 0.0
24/12:00am 24.5 26.7 19.1 72 3.5 NE 6 9 3 5 1012.1 1011.9 0.0
 
Date/Time
CST
Temp
°C
App
Temp
°C
Dew
Point
°C
Rel
Hum
%
Delta-T
°C
Wind Press
QNH
hPa
Press
MSL
hPa
Rain since
9am
mm
Dir  Spd
km/h
Gust
km/h
Spd
kts
Gust
kts
23/11:30pm 25.4 27.5 19.3 69 3.9 NE 7 11 4 6 1012.1 1011.9 0.0
23/11:00pm 25.5 27.3 18.7 66 4.3 NE 7 9 4 5 1012.0 1011.8 0.0
23/10:30pm 26.4 27.3 18.5 62 5.0 NE 11 15 6 8 1011.9 1011.7 0.0
23/10:00pm 26.6 27.9 18.5 61 5.2 NNE 9 11 5 6 1011.8 1011.6 0.0
23/09:30pm 27.3 27.9 17.8 56 6.0 NNE 11 17 6 9 1011.4 1011.2 0.0
23/09:00pm 27.6 27.9 18.0 55 6.1 NNE 13 20 7 11 1011.1 1010.9 0.0
23/08:30pm 28.5 27.9 16.7 48 7.4 NNE 15 26 8 14 1010.6 1010.4 0.0
23/08:00pm 29.3 28.1 16.1 44 8.2 NNE 17 30 9 16 1010.2 1010.0 0.0
23/07:30pm 30.6 29.3 12.5 33 10.7 NE 11 26 6 14 1009.5 1009.3 0.0
23/07:00pm 34.3 30.2 -3.1 9 17.5 SSE 9 11 5 6 1008.6 1008.4 0.0
23/06:30pm 36.3 31.4 -3.2 8 18.8 SSE 13 19 7 10 1008.2 1008.0 0.0
23/06:00pm 37.6 31.5 -4.0 7 19.7 SSE 19 24 10 13 1007.8 1007.6 0.0
23/05:30pm 38.1 33.0 -1.9 8 19.6 SSE 15 22 8 12 1007.5 1007.3 0.0
23/05:00pm 38.4 32.4 -3.4 7 20.0 SSE 19 32 10 17 1007.4 1007.2 0.0
23/04:30pm 38.8 32.8 -1.3 8 19.9 SSE 20 32 11 17 1007.3 1007.1 0.0

Other formats

Comma delimited format used in spreadsheet applications
http://www.bom.gov.au/fwo/IDD60801/IDD60801.94239.axf

JavaScript Object Notation format (JSON) in row-major order
http://www.bom.gov.au/fwo/IDD60801/IDD60801.94239.json

Data quality

Most of these data are generated automatically and are frequently updated. Quality checks on data are not normally performed. It is possible for incorrect values to appear. Refer to information at About Latest Weather Observations and please check the disclaimer before using these data.